sensor_id;sensor_type;location;lat;lon;timestamp;pressure;altitude;pressure_sealevel;temperature;humidity
16481;BME280;44634;54.110;12.138;2022-08-18T00:02:14;100633.19;;;25.83;100.00
16481;BME280;44634;54.110;12.138;2022-08-18T00:04:43;100628.25;;;25.80;100.00
16481;BME280;44634;54.110;12.138;2022-08-18T00:07:17;100625.59;;;25.68;100.00
16481;BME280;44634;54.110;12.138;2022-08-18T00:09:45;100628.69;;;25.37;100.00
16481;BME280;44634;54.110;12.138;2022-08-18T00:12:16;100621.94;;;25.63;100.00
16481;BME280;44634;54.110;12.138;2022-08-18T00:14:45;100628.25;;;25.80;100.00
16481;BME280;44634;54.110;12.138;2022-08-18T00:17:16;100638.91;;;25.46;100.00
16481;BME280;44634;54.110;12.138;2022-08-18T00:19:44;100640.22;;;25.20;100.00
16481;BME280;44634;54.110;12.138;2022-08-18T00:22:16;100656.34;;;25.04;100.00
16481;BME280;44634;54.110;12.138;2022-08-18T00:24:46;100665.56;;;24.84;100.00
16481;BME280;44634;54.110;12.138;2022-08-18T00:27:16;100671.56;;;24.86;100.00
16481;BME280;44634;54.110;12.138;2022-08-18T00:29:49;100685.75;;;24.70;100.00
16481;BME280;44634;54.110;12.138;2022-08-18T00:32:21;100679.78;;;24.80;100.00
16481;BME280;44634;54.110;12.138;2022-08-18T00:34:49;100680.50;;;24.87;100.00
16481;BME280;44634;54.110;12.138;2022-08-18T00:37:17;100676.25;;;24.68;100.00
16481;BME280;44634;54.110;12.138;2022-08-18T00:39:45;100682.88;;;24.23;100.00
16481;BME280;44634;54.110;12.138;2022-08-18T00:42:16;100685.72;;;24.58;100.00
16481;BME280;44634;54.110;12.138;2022-08-18T00:44:58;100675.44;;;24.79;100.00
16481;BME280;44634;54.110;12.138;2022-08-18T00:47:28;100659.50;;;24.29;100.00
16481;BME280;44634;54.110;12.138;2022-08-18T00:50:12;100679.78;;;24.38;100.00
16481;BME280;44634;54.110;12.138;2022-08-18T00:52:44;100692.63;;;24.43;100.00
16481;BME280;44634;54.110;12.138;2022-08-18T00:55:15;100682.94;;;25.18;100.00
16481;BME280;44634;54.110;12.138;2022-08-18T00:57:45;100670.69;;;25.28;100.00
16481;BME280;44634;54.110;12.138;2022-08-18T01:00:15;100685.03;;;25.16;100.00
16481;BME280;44634;54.110;12.138;2022-08-18T01:02:49;100673.69;;;24.84;100.00
16481;BME280;44634;54.110;12.138;2022-08-18T01:05:22;100671.34;;;24.35;100.00
16481;BME280;44634;54.110;12.138;2022-08-18T01:07:51;100671.06;;;25.19;100.00
16481;BME280;44634;54.110;12.138;2022-08-18T01:10:21;100663.38;;;24.21;100.00
16481;BME280;44634;54.110;12.138;2022-08-18T01:12:52;100661.94;;;24.37;100.00
16481;BME280;44634;54.110;12.138;2022-08-18T01:15:21;100665.53;;;25.03;100.00
16481;BME280;44634;54.110;12.138;2022-08-18T01:17:59;100674.59;;;25.32;100.00
16481;BME280;44634;54.110;12.138;2022-08-18T01:20:56;100673.47;;;24.98;100.00
16481;BME280;44634;54.110;12.138;2022-08-18T01:23:46;100676.75;;;25.00;100.00
16481;BME280;44634;54.110;12.138;2022-08-18T01:26:16;100687.91;;;24.80;100.00
16481;BME280;44634;54.110;12.138;2022-08-18T01:28:45;100714.47;;;24.83;100.00
16481;BME280;44634;54.110;12.138;2022-08-18T01:31:29;100729.59;;;24.60;100.00
16481;BME280;44634;54.110;12.138;2022-08-18T01:33:59;100712.97;;;24.45;100.00
16481;BME280;44634;54.110;12.138;2022-08-18T01:36:27;100692.16;;;24.27;100.00
16481;BME280;44634;54.110;12.138;2022-08-18T01:38:57;100694.56;;;24.66;100.00
16481;BME280;44634;54.110;12.138;2022-08-18T01:41:25;100679.03;;;24.49;100.00
16481;BME280;44634;54.110;12.138;2022-08-18T01:43:58;100681.38;;;24.46;100.00
16481;BME280;44634;54.110;12.138;2022-08-18T01:46:27;100664.97;;;24.11;100.00
16481;BME280;44634;54.110;12.138;2022-08-18T01:48:56;100647.06;;;24.28;100.00
16481;BME280;44634;54.110;12.138;2022-08-18T01:51:27;100626.00;;;23.88;100.00
16481;BME280;44634;54.110;12.138;2022-08-18T01:54:09;100620.00;;;23.68;100.00
16481;BME280;44634;54.110;12.138;2022-08-18T01:56:37;100620.09;;;23.80;100.00
16481;BME280;44634;54.110;12.138;2022-08-18T01:59:06;100619.22;;;23.42;100.00
16481;BME280;44634;54.110;12.138;2022-08-18T02:01:42;100623.75;;;23.49;100.00
16481;BME280;44634;54.110;12.138;2022-08-18T02:04:15;100619.47;;;23.41;100.00
16481;BME280;44634;54.110;12.138;2022-08-18T02:07:06;100625.56;;;23.73;100.00
16481;BME280;44634;54.110;12.138;2022-08-18T02:09:38;100615.06;;;23.47;100.00
16481;BME280;44634;54.110;12.138;2022-08-18T02:12:06;100613.84;;;23.24;100.00
16481;BME280;44634;54.110;12.138;2022-08-18T02:14:35;100613.91;;;23.54;100.00
16481;BME280;44634;54.110;12.138;2022-08-18T02:17:05;100605.31;;;23.64;100.00
16481;BME280;44634;54.110;12.138;2022-08-18T02:19:35;100600.06;;;23.32;100.00
16481;BME280;44634;54.110;12.138;2022-08-18T02:22:05;100602.44;;;23.40;100.00
16481;BME280;44634;54.110;12.138;2022-08-18T02:24:33;100610.53;;;23.22;100.00
16481;BME280;44634;54.110;12.138;2022-08-18T02:27:03;100607.34;;;23.32;100.00
16481;BME280;44634;54.110;12.138;2022-08-18T02:29:32;100614.22;;;23.46;100.00
16481;BME280;44634;54.110;12.138;2022-08-18T02:31:59;100606.69;;;22.93;100.00
16481;BME280;44634;54.110;12.138;2022-08-18T02:34:27;100596.59;;;23.25;100.00
16481;BME280;44634;54.110;12.138;2022-08-18T02:36:55;100588.94;;;23.04;100.00
16481;BME280;44634;54.110;12.138;2022-08-18T02:39:25;100592.09;;;23.01;100.00
16481;BME280;44634;54.110;12.138;2022-08-18T02:41:53;100597.84;;;22.79;100.00
16481;BME280;44634;54.110;12.138;2022-08-18T02:44:22;100597.03;;;23.04;100.00
16481;BME280;44634;54.110;12.138;2022-08-18T02:46:51;100594.78;;;23.01;100.00
16481;BME280;44634;54.110;12.138;2022-08-18T02:49:20;100594.34;;;23.04;100.00
16481;BME280;44634;54.110;12.138;2022-08-18T02:51:48;100584.97;;;23.25;100.00
16481;BME280;44634;54.110;12.138;2022-08-18T02:54:17;100593.69;;;22.83;100.00
16481;BME280;44634;54.110;12.138;2022-08-18T02:56:45;100592.97;;;22.95;100.00
16481;BME280;44634;54.110;12.138;2022-08-18T02:59:16;100587.91;;;23.23;100.00
16481;BME280;44634;54.110;12.138;2022-08-18T03:01:47;100591.59;;;22.85;100.00
16481;BME280;44634;54.110;12.138;2022-08-18T03:04:18;100585.94;;;23.12;100.00
16481;BME280;44634;54.110;12.138;2022-08-18T03:06:54;100582.28;;;23.25;100.00
16481;BME280;44634;54.110;12.138;2022-08-18T03:09:22;100586.41;;;23.09;100.00
16481;BME280;44634;54.110;12.138;2022-08-18T03:11:50;100587.16;;;23.16;100.00
16481;BME280;44634;54.110;12.138;2022-08-18T03:14:19;100585.34;;;22.92;100.00
16481;BME280;44634;54.110;12.138;2022-08-18T03:16:48;100580.75;;;22.92;100.00
16481;BME280;44634;54.110;12.138;2022-08-18T03:19:21;100578.16;;;23.04;100.00
16481;BME280;44634;54.110;12.138;2022-08-18T03:21:49;100579.31;;;22.65;100.00
16481;BME280;44634;54.110;12.138;2022-08-18T03:24:18;100593.25;;;22.62;100.00
16481;BME280;44634;54.110;12.138;2022-08-18T03:26:50;100588.13;;;22.78;100.00
16481;BME280;44634;54.110;12.138;2022-08-18T03:29:19;100589.16;;;22.77;100.00
16481;BME280;44634;54.110;12.138;2022-08-18T03:31:48;100587.47;;;22.83;100.00
16481;BME280;44634;54.110;12.138;2022-08-18T03:34:18;100575.97;;;22.94;100.00
16481;BME280;44634;54.110;12.138;2022-08-18T03:36:47;100587.06;;;22.86;100.00
16481;BME280;44634;54.110;12.138;2022-08-18T03:39:16;100575.22;;;22.80;100.00
16481;BME280;44634;54.110;12.138;2022-08-18T03:41:45;100581.38;;;22.38;100.00
16481;BME280;44634;54.110;12.138;2022-08-18T03:44:27;100589.81;;;22.48;100.00
16481;BME280;44634;54.110;12.138;2022-08-18T03:46:58;100593.13;;;22.75;100.00
16481;BME280;44634;54.110;12.138;2022-08-18T03:49:26;100581.25;;;22.82;100.00
16481;BME280;44634;54.110;12.138;2022-08-18T03:51:54;100584.94;;;22.63;100.00
16481;BME280;44634;54.110;12.138;2022-08-18T03:54:22;100594.38;;;22.47;100.00
16481;BME280;44634;54.110;12.138;2022-08-18T03:56:51;100625.38;;;22.56;100.00
16481;BME280;44634;54.110;12.138;2022-08-18T03:59:21;100635.63;;;22.48;100.00
16481;BME280;44634;54.110;12.138;2022-08-18T04:01:50;100658.13;;;22.60;100.00
16481;BME280;44634;54.110;12.138;2022-08-18T04:04:22;100667.72;;;22.81;100.00
16481;BME280;44634;54.110;12.138;2022-08-18T04:06:53;100658.50;;;22.95;100.00
16481;BME280;44634;54.110;12.138;2022-08-18T04:09:23;100690.19;;;22.68;100.00
16481;BME280;44634;54.110;12.138;2022-08-18T04:11:52;100720.81;;;22.80;100.00
16481;BME280;44634;54.110;12.138;2022-08-18T04:14:23;100712.72;;;22.80;100.00
16481;BME280;44634;54.110;12.138;2022-08-18T04:16:52;100705.84;;;23.16;100.00
16481;BME280;44634;54.110;12.138;2022-08-18T04:19:21;100713.66;;;23.24;100.00
16481;BME280;44634;54.110;12.138;2022-08-18T04:21:54;100721.97;;;22.98;100.00
16481;BME280;44634;54.110;12.138;2022-08-18T04:24:23;100729.88;;;22.93;100.00
16481;BME280;44634;54.110;12.138;2022-08-18T04:26:52;100732.81;;;22.91;100.00
16481;BME280;44634;54.110;12.138;2022-08-18T04:29:20;100717.56;;;23.03;100.00
16481;BME280;44634;54.110;12.138;2022-08-18T04:31:49;100721.31;;;23.02;100.00
16481;BME280;44634;54.110;12.138;2022-08-18T04:34:19;100689.19;;;23.01;100.00
16481;BME280;44634;54.110;12.138;2022-08-18T04:36:49;100709.25;;;22.73;100.00
16481;BME280;44634;54.110;12.138;2022-08-18T04:39:20;100720.91;;;22.99;100.00
16481;BME280;44634;54.110;12.138;2022-08-18T04:41:48;100734.47;;;22.85;100.00
16481;BME280;44634;54.110;12.138;2022-08-18T04:44:17;100740.25;;;22.58;100.00
16481;BME280;44634;54.110;12.138;2022-08-18T04:46:47;100761.38;;;22.61;100.00
16481;BME280;44634;54.110;12.138;2022-08-18T04:49:19;100778.59;;;22.60;100.00
16481;BME280;44634;54.110;12.138;2022-08-18T04:51:49;100753.59;;;22.77;100.00
16481;BME280;44634;54.110;12.138;2022-08-18T04:54:51;100741.97;;;22.83;100.00
16481;BME280;44634;54.110;12.138;2022-08-18T04:57:19;100771.38;;;22.92;100.00
16481;BME280;44634;54.110;12.138;2022-08-18T04:59:50;100761.19;;;22.94;100.00
16481;BME280;44634;54.110;12.138;2022-08-18T05:02:19;100734.13;;;23.07;100.00
16481;BME280;44634;54.110;12.138;2022-08-18T05:04:47;100744.47;;;22.78;100.00
16481;BME280;44634;54.110;12.138;2022-08-18T05:07:19;100752.13;;;22.81;100.00
16481;BME280;44634;54.110;12.138;2022-08-18T05:09:48;100773.91;;;22.87;100.00
16481;BME280;44634;54.110;12.138;2022-08-18T05:12:17;100792.94;;;22.92;100.00
16481;BME280;44634;54.110;12.138;2022-08-18T05:14:51;100825.78;;;22.75;100.00
16481;BME280;44634;54.110;12.138;2022-08-18T05:17:19;100826.97;;;22.93;100.00
16481;BME280;44634;54.110;12.138;2022-08-18T05:19:49;100792.03;;;23.04;100.00
16481;BME280;44634;54.110;12.138;2022-08-18T05:22:18;100790.72;;;23.13;100.00
16481;BME280;44634;54.110;12.138;2022-08-18T05:24:54;100812.06;;;22.83;100.00
16481;BME280;44634;54.110;12.138;2022-08-18T05:27:23;100819.25;;;22.96;100.00
16481;BME280;44634;54.110;12.138;2022-08-18T05:29:51;100797.47;;;22.98;100.00
16481;BME280;44634;54.110;12.138;2022-08-18T05:32:19;100821.47;;;23.06;100.00
16481;BME280;44634;54.110;12.138;2022-08-18T05:35:11;100815.59;;;22.77;100.00
16481;BME280;44634;54.110;12.138;2022-08-18T05:37:49;100811.25;;;23.14;100.00
16481;BME280;44634;54.110;12.138;2022-08-18T05:40:22;100793.16;;;23.22;100.00
16481;BME280;44634;54.110;12.138;2022-08-18T05:42:51;100803.53;;;23.50;100.00
16481;BME280;44634;54.110;12.138;2022-08-18T05:45:23;100803.28;;;23.26;100.00
16481;BME280;44634;54.110;12.138;2022-08-18T05:47:56;100767.16;;;23.27;100.00
16481;BME280;44634;54.110;12.138;2022-08-18T05:50:25;100761.63;;;23.90;100.00
16481;BME280;44634;54.110;12.138;2022-08-18T05:52:57;100733.72;;;23.60;100.00
16481;BME280;44634;54.110;12.138;2022-08-18T05:55:32;100746.97;;;23.98;100.00
16481;BME280;44634;54.110;12.138;2022-08-18T05:58:21;100721.84;;;23.97;100.00
16481;BME280;44634;54.110;12.138;2022-08-18T06:01:01;100718.84;;;24.06;100.00
16481;BME280;44634;54.110;12.138;2022-08-18T06:03:34;100694.38;;;24.19;100.00
16481;BME280;44634;54.110;12.138;2022-08-18T06:06:15;100685.06;;;24.33;100.00
16481;BME280;44634;54.110;12.138;2022-08-18T06:08:50;100649.75;;;24.46;100.00
16481;BME280;44634;54.110;12.138;2022-08-18T06:11:20;100666.84;;;24.10;100.00
16481;BME280;44634;54.110;12.138;2022-08-18T06:13:48;100690.28;;;24.28;100.00
16481;BME280;44634;54.110;12.138;2022-08-18T06:16:36;100658.09;;;24.56;100.00
16481;BME280;44634;54.110;12.138;2022-08-18T06:19:22;100638.81;;;25.06;100.00
16481;BME280;44634;54.110;12.138;2022-08-18T06:21:57;100631.13;;;24.91;100.00
16481;BME280;44634;54.110;12.138;2022-08-18T06:24:33;100617.66;;;25.03;100.00
16481;BME280;44634;54.110;12.138;2022-08-18T06:27:09;100607.25;;;25.35;100.00
16481;BME280;44634;54.110;12.138;2022-08-18T06:29:54;100595.56;;;25.98;100.00
16481;BME280;44634;54.110;12.138;2022-08-18T06:32:29;100584.38;;;25.55;100.00
16481;BME280;44634;54.110;12.138;2022-08-18T06:35:10;100607.50;;;25.34;100.00
16481;BME280;44634;54.110;12.138;2022-08-18T06:37:48;100596.69;;;25.74;100.00
16481;BME280;44634;54.110;12.138;2022-08-18T06:40:37;100596.78;;;25.91;100.00
16481;BME280;44634;54.110;12.138;2022-08-18T06:43:09;100588.81;;;26.01;100.00
16481;BME280;44634;54.110;12.138;2022-08-18T06:45:41;100572.56;;;26.01;100.00
16481;BME280;44634;54.110;12.138;2022-08-18T06:48:16;100558.91;;;26.91;100.00
16481;BME280;44634;54.110;12.138;2022-08-18T06:50:49;100558.69;;;26.43;100.00
16481;BME280;44634;54.110;12.138;2022-08-18T06:53:19;100552.97;;;26.27;100.00
16481;BME280;44634;54.110;12.138;2022-08-18T06:55:55;100562.31;;;26.65;100.00
16481;BME280;44634;54.110;12.138;2022-08-18T06:58:26;100557.38;;;26.79;100.00
16481;BME280;44634;54.110;12.138;2022-08-18T07:00:59;100542.75;;;26.80;100.00
16481;BME280;44634;54.110;12.138;2022-08-18T07:03:43;100551.22;;;26.66;100.00
16481;BME280;44634;54.110;12.138;2022-08-18T07:06:28;100544.84;;;26.10;100.00
16481;BME280;44634;54.110;12.138;2022-08-18T07:09:20;100539.00;;;27.03;100.00
16481;BME280;44634;54.110;12.138;2022-08-18T07:12:04;100544.75;;;26.51;100.00
16481;BME280;44634;54.110;12.138;2022-08-18T07:14:42;100542.28;;;26.88;100.00
16481;BME280;44634;54.110;12.138;2022-08-18T07:17:18;100550.66;;;27.20;100.00
16481;BME280;44634;54.110;12.138;2022-08-18T07:19:55;100548.97;;;27.19;100.00
16481;BME280;44634;54.110;12.138;2022-08-18T07:22:23;100543.81;;;26.79;100.00
16481;BME280;44634;54.110;12.138;2022-08-18T07:25:05;100554.56;;;27.29;100.00
16481;BME280;44634;54.110;12.138;2022-08-18T07:27:44;100562.41;;;27.69;100.00
16481;BME280;44634;54.110;12.138;2022-08-18T07:30:27;100570.72;;;28.11;100.00
16481;BME280;44634;54.110;12.138;2022-08-18T07:33:00;100554.09;;;27.59;100.00
16481;BME280;44634;54.110;12.138;2022-08-18T07:35:33;100563.50;;;27.95;100.00
16481;BME280;44634;54.110;12.138;2022-08-18T07:38:09;100563.53;;;27.51;100.00
16481;BME280;44634;54.110;12.138;2022-08-18T07:41:05;100605.66;;;28.52;100.00
16481;BME280;44634;54.110;12.138;2022-08-18T07:43:40;100601.84;;;27.99;100.00
16481;BME280;44634;54.110;12.138;2022-08-18T07:46:15;100625.03;;;28.60;100.00
16481;BME280;44634;54.110;12.138;2022-08-18T07:48:45;100615.66;;;27.92;100.00
16481;BME280;44634;54.110;12.138;2022-08-18T07:51:21;100642.91;;;28.83;100.00
16481;BME280;44634;54.110;12.138;2022-08-18T07:54:00;100673.81;;;28.99;100.00
16481;BME280;44634;54.110;12.138;2022-08-18T07:56:59;100709.22;;;28.72;100.00
16481;BME280;44634;54.110;12.138;2022-08-18T07:59:34;100699.56;;;28.32;100.00
16481;BME280;44634;54.110;12.138;2022-08-18T08:02:18;100693.94;;;28.39;100.00
16481;BME280;44634;54.110;12.138;2022-08-18T08:04:59;100679.25;;;28.67;100.00
16481;BME280;44634;54.110;12.138;2022-08-18T08:07:29;100701.00;;;28.18;100.00
16481;BME280;44634;54.110;12.138;2022-08-18T08:10:23;100720.81;;;28.89;100.00
16481;BME280;44634;54.110;12.138;2022-08-18T08:13:01;100751.41;;;29.01;100.00
16481;BME280;44634;54.110;12.138;2022-08-18T08:15:42;100753.47;;;28.62;100.00
16481;BME280;44634;54.110;12.138;2022-08-18T08:18:18;100764.63;;;29.20;100.00
16481;BME280;44634;54.110;12.138;2022-08-18T08:20:52;100797.16;;;29.37;100.00
16481;BME280;44634;54.110;12.138;2022-08-18T08:23:27;100796.84;;;28.96;100.00
16481;BME280;44634;54.110;12.138;2022-08-18T08:26:13;100826.97;;;29.80;100.00
16481;BME280;44634;54.110;12.138;2022-08-18T08:28:50;100844.97;;;29.49;100.00
16481;BME280;44634;54.110;12.138;2022-08-18T08:31:34;100853.06;;;29.71;100.00
16481;BME280;44634;54.110;12.138;2022-08-18T08:34:11;100832.44;;;29.21;100.00
16481;BME280;44634;54.110;12.138;2022-08-18T08:36:42;100826.91;;;29.38;100.00
16481;BME280;44634;54.110;12.138;2022-08-18T08:39:15;100834.91;;;29.87;100.00
16481;BME280;44634;54.110;12.138;2022-08-18T08:41:47;100853.72;;;29.88;100.00
16481;BME280;44634;54.110;12.138;2022-08-18T08:44:19;100868.59;;;30.08;100.00
16481;BME280;44634;54.110;12.138;2022-08-18T08:46:52;100906.03;;;30.23;100.00
16481;BME280;44634;54.110;12.138;2022-08-18T08:49:31;100907.19;;;30.32;100.00
16481;BME280;44634;54.110;12.138;2022-08-18T08:52:04;100904.75;;;30.30;100.00
16481;BME280;44634;54.110;12.138;2022-08-18T08:54:41;100922.19;;;30.29;100.00
16481;BME280;44634;54.110;12.138;2022-08-18T08:57:12;100912.81;;;30.57;100.00
16481;BME280;44634;54.110;12.138;2022-08-18T08:59:43;100915.06;;;30.23;100.00
16481;BME280;44634;54.110;12.138;2022-08-18T09:02:30;100915.53;;;30.57;100.00
16481;BME280;44634;54.110;12.138;2022-08-18T09:05:17;100915.09;;;30.28;100.00
16481;BME280;44634;54.110;12.138;2022-08-18T09:08:08;100928.59;;;30.08;100.00
16481;BME280;44634;54.110;12.138;2022-08-18T09:10:55;100935.56;;;30.73;100.00
16481;BME280;44634;54.110;12.138;2022-08-18T09:16:40;100953.84;;;32.11;100.00
16481;BME280;44634;54.110;12.138;2022-08-18T09:19:33;100946.69;;;31.29;100.00
16481;BME280;44634;54.110;12.138;2022-08-18T09:22:14;100932.88;;;30.88;100.00
16481;BME280;44634;54.110;12.138;2022-08-18T09:24:48;100933.19;;;30.97;100.00
16481;BME280;44634;54.110;12.138;2022-08-18T09:27:30;100940.13;;;31.30;100.00
16481;BME280;44634;54.110;12.138;2022-08-18T09:30:41;100954.88;;;31.29;100.00
16481;BME280;44634;54.110;12.138;2022-08-18T09:33:33;100958.22;;;31.61;100.00
16481;BME280;44634;54.110;12.138;2022-08-18T09:36:32;100947.88;;;31.84;100.00
16481;BME280;44634;54.110;12.138;2022-08-18T09:39:17;100962.63;;;32.29;100.00
16481;BME280;44634;54.110;12.138;2022-08-18T09:42:09;100952.75;;;31.61;100.00
16481;BME280;44634;54.110;12.138;2022-08-18T09:45:09;100936.19;;;31.00;100.00
16481;BME280;44634;54.110;12.138;2022-08-18T09:48:01;100938.50;;;31.39;100.00
16481;BME280;44634;54.110;12.138;2022-08-18T09:54:18;100951.13;;;31.55;100.00
16481;BME280;44634;54.110;12.138;2022-08-18T09:57:15;100954.38;;;31.57;100.00
16481;BME280;44634;54.110;12.138;2022-08-18T10:00:26;100950.28;;;32.11;100.00
16481;BME280;44634;54.110;12.138;2022-08-18T10:03:17;100951.09;;;32.21;100.00
16481;BME280;44634;54.110;12.138;2022-08-18T10:05:59;100947.31;;;31.82;100.00
16481;BME280;44634;54.110;12.138;2022-08-18T10:09:02;100937.09;;;32.53;100.00
16481;BME280;44634;54.110;12.138;2022-08-18T10:12:20;100940.63;;;32.64;100.00
16481;BME280;44634;54.110;12.138;2022-08-18T10:21:10;100947.13;;;32.78;100.00
16481;BME280;44634;54.110;12.138;2022-08-18T10:23:50;100949.47;;;33.60;100.00
16481;BME280;44634;54.110;12.138;2022-08-18T10:27:07;100957.03;;;34.89;100.00
16481;BME280;44634;54.110;12.138;2022-08-18T10:29:51;100965.19;;;34.46;100.00
16481;BME280;44634;54.110;12.138;2022-08-18T10:32:43;100963.50;;;34.21;100.00
16481;BME280;44634;54.110;12.138;2022-08-18T10:38:42;100962.31;;;36.26;97.14
16481;BME280;44634;54.110;12.138;2022-08-18T10:41:22;100962.19;;;34.67;100.00
16481;BME280;44634;54.110;12.138;2022-08-18T10:43:58;100949.97;;;35.21;100.00
16481;BME280;44634;54.110;12.138;2022-08-18T10:46:31;100948.66;;;37.03;93.99
16481;BME280;44634;54.110;12.138;2022-08-18T10:49:21;100949.06;;;37.46;86.75
16481;BME280;44634;54.110;12.138;2022-08-18T10:52:27;100946.75;;;36.35;96.63
16481;BME280;44634;54.110;12.138;2022-08-18T10:55:12;100946.09;;;35.78;100.00
16481;BME280;44634;54.110;12.138;2022-08-18T10:58:08;100936.75;;;36.94;97.83
16481;BME280;44634;54.110;12.138;2022-08-18T11:00:55;100935.47;;;37.95;86.00
16481;BME280;44634;54.110;12.138;2022-08-18T11:03:39;100947.19;;;35.96;95.58
16481;BME280;44634;54.110;12.138;2022-08-18T11:06:19;100951.16;;;37.41;83.92
16481;BME280;44634;54.110;12.138;2022-08-18T11:08:56;100960.22;;;36.50;88.78
16481;BME280;44634;54.110;12.138;2022-08-18T11:11:31;100957.09;;;36.11;91.54
16481;BME280;44634;54.110;12.138;2022-08-18T11:17:14;100958.47;;;37.09;82.11
16481;BME280;44634;54.110;12.138;2022-08-18T11:19:49;100958.06;;;37.74;78.61
16481;BME280;44634;54.110;12.138;2022-08-18T11:22:25;100968.63;;;38.03;81.11
16481;BME280;44634;54.110;12.138;2022-08-18T11:24:58;100969.38;;;37.14;91.03
16481;BME280;44634;54.110;12.138;2022-08-18T11:27:31;100967.78;;;34.56;100.00
16481;BME280;44634;54.110;12.138;2022-08-18T11:30:04;100970.22;;;34.63;100.00
16481;BME280;44634;54.110;12.138;2022-08-18T11:32:34;100965.50;;;35.87;100.00
16481;BME280;44634;54.110;12.138;2022-08-18T11:35:20;100965.19;;;34.94;100.00
16481;BME280;44634;54.110;12.138;2022-08-18T11:37:53;100950.44;;;34.08;100.00
16481;BME280;44634;54.110;12.138;2022-08-18T11:40:31;100944.28;;;33.09;100.00
16481;BME280;44634;54.110;12.138;2022-08-18T11:43:24;100944.38;;;33.77;100.00
16481;BME280;44634;54.110;12.138;2022-08-18T11:45:57;100957.78;;;34.18;100.00
16481;BME280;44634;54.110;12.138;2022-08-18T11:48:35;100962.88;;;35.95;100.00
16481;BME280;44634;54.110;12.138;2022-08-18T11:51:21;100974.91;;;34.05;100.00
16481;BME280;44634;54.110;12.138;2022-08-18T11:53:53;100966.16;;;34.03;100.00
16481;BME280;44634;54.110;12.138;2022-08-18T11:56:27;100966.13;;;35.46;100.00
16481;BME280;44634;54.110;12.138;2022-08-18T11:58:58;100965.13;;;34.51;100.00
16481;BME280;44634;54.110;12.138;2022-08-18T12:01:38;100967.16;;;34.65;100.00
16481;BME280;44634;54.110;12.138;2022-08-18T12:04:13;100971.00;;;34.11;100.00
16481;BME280;44634;54.110;12.138;2022-08-18T12:06:57;100968.78;;;34.13;100.00
16481;BME280;44634;54.110;12.138;2022-08-18T12:09:33;100978.59;;;35.76;100.00
16481;BME280;44634;54.110;12.138;2022-08-18T12:12:23;100976.28;;;35.08;100.00
16481;BME280;44634;54.110;12.138;2022-08-18T12:14:56;100972.78;;;34.54;100.00
16481;BME280;44634;54.110;12.138;2022-08-18T12:17:40;100977.00;;;35.13;100.00
16481;BME280;44634;54.110;12.138;2022-08-18T12:20:18;100971.59;;;35.08;100.00
16481;BME280;44634;54.110;12.138;2022-08-18T12:22:48;100973.13;;;34.72;100.00
16481;BME280;44634;54.110;12.138;2022-08-18T12:25:18;100967.56;;;33.56;100.00
16481;BME280;44634;54.110;12.138;2022-08-18T12:27:51;100958.47;;;33.21;100.00
16481;BME280;44634;54.110;12.138;2022-08-18T12:30:19;100956.94;;;33.83;100.00
16481;BME280;44634;54.110;12.138;2022-08-18T12:32:46;100969.25;;;33.52;100.00
16481;BME280;44634;54.110;12.138;2022-08-18T12:35:21;100961.19;;;35.24;100.00
16481;BME280;44634;54.110;12.138;2022-08-18T12:37:51;100962.81;;;33.71;100.00
16481;BME280;44634;54.110;12.138;2022-08-18T12:40:30;100967.34;;;34.20;100.00
16481;BME280;44634;54.110;12.138;2022-08-18T12:42:58;100962.31;;;33.98;100.00
16481;BME280;44634;54.110;12.138;2022-08-18T12:45:27;100968.09;;;34.55;100.00
16481;BME280;44634;54.110;12.138;2022-08-18T12:47:56;100967.75;;;33.69;100.00
16481;BME280;44634;54.110;12.138;2022-08-18T12:50:48;100967.44;;;34.39;100.00
16481;BME280;44634;54.110;12.138;2022-08-18T12:53:26;100960.03;;;33.42;100.00
16481;BME280;44634;54.110;12.138;2022-08-18T12:56:19;100950.75;;;33.33;100.00
16481;BME280;44634;54.110;12.138;2022-08-18T12:58:48;100959.94;;;33.92;100.00
16481;BME280;44634;54.110;12.138;2022-08-18T13:01:16;100956.94;;;33.00;100.00
16481;BME280;44634;54.110;12.138;2022-08-18T13:03:44;100960.31;;;33.36;100.00
16481;BME280;44634;54.110;12.138;2022-08-18T13:06:35;100967.81;;;33.98;100.00
16481;BME280;44634;54.110;12.138;2022-08-18T13:09:07;100962.88;;;33.61;100.00
16481;BME280;44634;54.110;12.138;2022-08-18T13:11:55;100959.41;;;33.51;100.00
16481;BME280;44634;54.110;12.138;2022-08-18T13:14:26;100959.09;;;33.52;100.00
16481;BME280;44634;54.110;12.138;2022-08-18T13:16:54;100955.47;;;33.18;100.00
16481;BME280;44634;54.110;12.138;2022-08-18T13:19:22;100944.13;;;34.08;100.00
16481;BME280;44634;54.110;12.138;2022-08-18T13:21:57;100943.41;;;33.63;100.00
16481;BME280;44634;54.110;12.138;2022-08-18T13:24:26;100957.25;;;34.45;100.00
16481;BME280;44634;54.110;12.138;2022-08-18T13:26:54;100948.56;;;35.04;100.00
16481;BME280;44634;54.110;12.138;2022-08-18T13:29:22;100948.81;;;33.73;100.00
16481;BME280;44634;54.110;12.138;2022-08-18T13:31:50;100957.41;;;33.17;100.00
16481;BME280;44634;54.110;12.138;2022-08-18T13:34:24;100940.00;;;32.88;100.00